Tiempo atmosférico en la estación meteorológica de Vitoria Gasteiz Aeropuerto Foronda, Araba/Álava (513 m.)



Fecha
DESCASC
Temp. máxima en grados centígrados (hora)
DESCASC
Temp. mínima en grados centígrados (hora)
DESCASC
Temp. media en grados centígrados
DESCASC
Racha de viento máxima en m/sg (hora)
DESCASC
Velocidad máxima media en intervalos de 10 minutos(hora)
DESCASC
Precipitaciones diarias en mm
DESCASC
Precipitaciones de 00:00 a 06:00 en mm
DESCASC
Precipitaciones de 06:00 a 12:00 en mm
DESCASC
Precipitaciones de 12:00 a 18:00 en mm
DESCASC
Precipitaciones de 18:00 a 24:00 en mm
DESCASC

Gráficas

Temp. máximas Temp. mínimas Temp. medias Precipitaciones Rachas de viento máximas Velocidades máximas media en intervalos de 10 minutos

Datos horarios

Fecha y hora oficial Temperatura (ºC) Velocidad del viento (km/h) Dirección del viento Racha (km/h) Dirección de racha Precipitación (mm) Presión (hPa) Tendencia (hPa) Humedad (%)
2019-08-24 23:00:00 19.8 9 Norte 15 Norte 0 960.5 1.7 90
2019-08-24 22:00:00 20.1 10 Norte 21 Norte 0 960.1 1.8 89
2019-08-24 21:00:00 21.1 16 Norte 32 Nordeste 0 959.6 1.4 84
2019-08-24 20:00:00 24.3 24 Nordeste 39 Norte 0 958.8 0.7 75
2019-08-24 19:00:00 27.5 29 Norte 42 Nordeste 0 958.3 -0.3 64
2019-08-24 18:00:00 29.9 33 Nordeste 41 Nordeste 0 958.2 -0.8 58
2019-08-24 17:00:00 34.5 7 Norte 17 Este 0 958.1 -1.3 26
2019-08-24 16:00:00 33.4 6 Sudoeste 18 Sudeste 0 958.6 -1.4 28
2019-08-24 15:00:00 33.2 8 Sur 21 Sudeste 0 959 -1.4 32
2019-08-24 14:00:00 31.4 4 Nordeste 15 Noroeste 0 959.4 -1.3 40
2019-08-24 13:00:00 29.6 5 Oeste 13 Oeste 0 960 -0.7 42
2019-08-24 12:00:00 27.4 6 Sudoeste 13 Sudoeste 0 960.4 -0.3 49
2019-08-24 11:00:00 24.9 5 Sudoeste 13 Oeste 0 960.7 0.2 55
2019-08-24 10:00:00 19.2 0 Calma 5 Sudeste 0 960.7 0.4 68
2019-08-24 09:00:00 14.8 2 Este 5 Sudeste 0 960.7 0.5 84
2019-08-24 08:00:00 9.8 5 Nordeste 8 Nordeste 0 960.5 0.3 97
2019-08-24 07:00:00 9.9 3 Oeste 5 Oeste 0 960.3 0 93
2019-08-24 06:00:00 9.7 3 Este 5 Este 0 960.2 0 93
2019-08-24 05:00:00 10.7 3 Este 8 Nordeste 0 960.2 -0.2 90
2019-08-24 04:00:00 12.3 4 Noroeste 9 Noroeste 0 960.3 0 85
2019-08-24 03:00:00 12.5 4 Norte 8 Este 0 960.2 0 81
2019-08-24 02:00:00 13.9 2 Noroeste 9 Nordeste 0 960.4 0.4 77
2019-08-24 01:00:00 16.2 10 Norte 15 Nordeste 0 960.3 0.7 65
2019-08-24 00:00:00 17.4 6 Norte 9 Norte 0 960.2 1.2 68
2019-08-23 23:00:00 18.3 4 Noroeste 8 Norte 0 960 1.4 66
2019-08-23 22:00:00 21.2 0 Calma 13 Oeste 0 959.6 1.2 57
2019-08-23 21:00:00 26.5 13 Norte 26 Norte 0 959 0.5 41
2019-08-23 20:00:00 29.9 22 Norte 33 Norte 0 958.6 -0.2 34
2019-08-23 19:00:00 32.5 20 Nordeste 30 Nordeste 0 958.4 -1 27
2019-08-23 18:00:00 33.3 10 Nordeste 21 Norte 0 958.5 -1.7 21
2019-08-23 17:00:00 33.4 8 Norte 24 Norte 0 958.8 -2 22
2019-08-23 16:00:00 32.8 11 Oeste 24 Oeste 0 959.4 -2 26
2019-08-23 15:00:00 31.6 13 Sudoeste 24 Sur 0 960.2 -1.6 30
2019-08-23 14:00:00 28.9 5 Sudeste 21 Sudoeste 0 960.8 -1.4 37
2019-08-23 13:00:00 26.8 10 Sudoeste 17 Oeste 0 961.4 -1 44
2019-08-23 12:00:00 23.5 6 Sur 17 Sudoeste 0 961.8 -0.8 50
2019-08-23 11:00:00 19.7 7 Sudoeste 13 Sudoeste 0 962.2 -0.2 64
2019-08-23 10:00:00 14.8 3 Sudeste 8 Sudeste 0 962.4 0.4 83
2019-08-23 09:00:00 10.5 0 Calma 5 Nordeste 0 962.6 0.5 99
2019-08-23 08:00:00 6.7 5 Nordeste 8 Este 0 962.4 0.2 100
2019-08-23 07:00:00 6.5 6 Nordeste 8 Nordeste 0 962 -0.4 100
2019-08-23 06:00:00 7.5 0 Calma 8 Nordeste 0 962.1 -0.5 99
2019-08-23 05:00:00 7.5 8 Nordeste 9 Nordeste 0 962.2 -0.8 100
2019-08-23 04:00:00 7.4 0 Calma 8 Norte 0 962.4 -0.8 96
2019-08-23 03:00:00 8.4 3 Nordeste 8 Nordeste 0 962.6 -0.8 94
2019-08-23 02:00:00 10 0 Calma 5 Este 0 963 -0.5 90
2019-08-23 01:00:00 11.5 2 Nordeste 11 Nordeste 0 963.2 -0.1 83
2019-08-23 00:00:00 11.7 3 Este 11 Este 0 963.4 0.7 85
2019-08-22 23:00:00 14.1 0 Calma 9 Norte 0 963.5 1.3 76
2019-08-22 22:00:00 16.5 0 Calma 22 Norte 0 963.3 1 68
2019-08-22 21:00:00 20.3 14 Norte 26 Norte 0 962.7 0.3 58
2019-08-22 20:00:00 23.4 19 Nordeste 28 Nordeste 0 962.2 -0.5 46
2019-08-22 19:00:00 25.2 19 Nordeste 32 Nordeste 0 962.3 -0.9 40
2019-08-22 18:00:00 26.1 19 Nordeste 30 Nordeste 0 962.4 -1.4 36
2019-08-22 17:00:00 26.5 16 Norte 30 Norte 0 962.7 -1.5 37
2019-08-22 16:00:00 26.4 14 Norte 30 Norte 0 963.2 -1.5 40
2019-08-22 15:00:00 26.4 14 Nordeste 28 Norte 0 963.8 -1.3 39
2019-08-22 14:00:00 25 16 Norte 33 Nordeste 0 964.2 -1.1 42
2019-08-22 13:00:00 24.2 17 Nordeste 32 Nordeste 0 964.7 -0.5 40
2019-08-22 12:00:00 22.3 12 Nordeste 26 Nordeste 0 965.1 0 55
2019-08-22 11:00:00 18.9 4 Oeste 11 Sudoeste 0 965.3 0.6 73
2019-08-22 10:00:00 15 0 Calma 8 Norte 0 965.2 1 88
2019-08-22 09:00:00 11.1 0 Calma 4 Nordeste 0 965.1 1 98
2019-08-22 08:00:00 6.5 0 Calma 5 Este 0 964.7 0.5 100
2019-08-22 07:00:00 6.3 3 Nordeste 5 Nordeste 0 964.2 0.1 100
2019-08-22 06:00:00 7.1 0 Calma 8 Noroeste 0 964.1 -0.1 100
2019-08-22 05:00:00 7.1 0 Calma 4 Sudoeste 0 964.2 -0.5 98
2019-08-22 04:00:00 8 0 Calma -- -- 0 964.1 -1 98
2019-08-22 03:00:00 9.3 0 Calma 5 Este 0 964.2 -1 99
2019-08-22 02:00:00 10.4 4 Norte 9 Este 0 964.7 -0.1 95
2019-08-22 01:00:00 11.4 6 Sudeste 13 Noroeste 0 965.1 0.7 93
2019-08-22 00:00:00 13.5 4 Oeste 17 Nordeste 0 965.2 1.8 90
2019-08-21 23:00:00 15 11 Norte 15 Nordeste 0 964.8 2.1 88
2019-08-21 22:00:00 17.4 10 Nordeste 28 Norte 0 964.4 2.3 82
2019-08-21 21:00:00 19.5 19 Norte 41 Norte 0 963.4 2 77
2019-08-21 20:00:00 21.7 23 Norte 37 Nordeste 0 962.7 1.3 69
2019-08-21 19:00:00 23.8 23 Norte 39 Nordeste 0 962.1 0.4 64
2019-08-21 18:00:00 25.4 24 Norte 35 Norte 0 961.4 -0.6 58
2019-08-21 17:00:00 25.8 18 Nordeste 32 Nordeste 0 961.4 -1 56
2019-08-21 16:00:00 26 17 Nordeste 30 Nordeste 0 961.7 -1.3 56
2019-08-21 15:00:00 25.8 14 Nordeste 28 Nordeste 0 962 -1.6 55
2019-08-21 14:00:00 24.1 8 Nordeste 18 Norte 0 962.4 -1.4 57
2019-08-21 13:00:00 22.7 6 Este 13 Este 0 963 -0.8 61
2019-08-21 12:00:00 20.1 5 Este 11 Este 0 963.6 -0.3 66
2019-08-21 11:00:00 17.7 5 Este 11 Este 0 963.8 0 77
2019-08-21 10:00:00 16.2 4 Sudeste 8 Este 0 963.8 0.2 85
2019-08-21 09:00:00 12.6 3 Sudeste 5 Este 0 963.9 0.1 100
2019-08-21 08:00:00 10.5 3 Noroeste 4 Noroeste 0 963.8 -0.6 100
2019-08-21 07:00:00 10.2 0 Calma 8 Sur 0 963.6 -1 98
2019-08-21 06:00:00 11.1 3 Sur 5 Sudeste 0 963.8 -1 99
2019-08-21 05:00:00 11.1 0 Calma 9 Norte 0 964.4 -0.9 100
2019-08-21 04:00:00 12.4 4 Este 15 Norte 0 964.6 -0.8 94
2019-08-21 03:00:00 14.9 12 Norte 22 Norte 0 964.8 -0.9 87
2019-08-21 02:00:00 15.9 14 Norte 21 Norte 0 965.3 -0.4 84
2019-08-21 01:00:00 16 16 Norte 22 Norte 0 965.4 0.1 83
2019-08-21 00:00:00 16 15 Norte 26 Norte 0 965.7 0.5 83
2019-08-20 23:00:00 16.1 19 Norte 32 Norte 0 965.7 0.9 83
2019-08-20 22:00:00 15.2 14 Norte 26 Norte 0 965.3 0.7 83
2019-08-20 21:00:00 16.8 18 Norte 33 Nordeste 0 965.2 0.7 73
2019-08-20 20:00:00 18.4 24 Nordeste 35 Nordeste 0 964.8 0.2 66
2019-08-20 19:00:00 19.4 24 Nordeste 35 Nordeste 0 964.6 -0.1 62
2019-08-20 18:00:00 20.1 21 Norte 37 Norte 0 964.5 -0.6 66
2019-08-20 17:00:00 20.5 20 Norte 35 Nordeste 0 964.6 -0.3 65
2019-08-20 16:00:00 22.1 23 Nordeste 33 Nordeste 0 964.7 -0.5 56
2019-08-20 15:00:00 20.2 21 Norte 30 Norte 0 965.1 0 65
2019-08-20 14:00:00 21.1 24 Nordeste 39 Nordeste 0 964.9 0.3 58
2019-08-20 13:00:00 19.8 19 Nordeste 33 Norte -- 965.2 0.9 63
2019-08-20 12:00:00 18.5 16 Norte 30 Norte -- 965.1 1.3 71
2019-08-20 11:00:00 16.5 14 Norte 26 Norte 0 964.6 1.6 83
2019-08-20 10:00:00 15.2 14 Norte 26 Norte 0 964.3 2.2 90
2019-08-20 09:00:00 14.4 10 Nordeste 21 Nordeste 0 963.8 2.2 97
2019-08-20 08:00:00 14.2 17 Norte 30 Norte 0 963 1.4 93
2019-08-20 07:00:00 14.3 18 Norte 32 Norte 0 962.1 0.7 98
2019-08-20 06:00:00 14.6 11 Norte 18 Norte 0 961.6 -0.4 95
2019-08-20 05:00:00 14.7 4 Nordeste 21 Norte 0 961.6 -0.9 93
2019-08-20 04:00:00 14.8 13 Norte 18 Norte 0 961.4 -1.4 92
2019-08-20 03:00:00 14.7 8 Norte 17 Norte 0 962 -0.6 93
2019-08-20 02:00:00 14.5 13 Norte 21 Norte 0 962.5 0.3 96
2019-08-20 01:00:00 14.5 12 Norte 26 Norte 0 962.8 0.9 97
2019-08-20 00:00:00 14.9 14 Norte 24 Norte 0 962.6 0.7 94
2019-08-19 23:00:00 15.2 15 Norte 28 Norte 0 962.2 0.9 91
2019-08-19 22:00:00 15.3 20 Norte 32 Nordeste 0 961.9 0.5 94
2019-08-19 21:00:00 15.8 18 Norte 33 Norte 0 961.9 0.8 91
2019-08-19 20:00:00 16.9 19 Norte 37 Norte 0 961.3 -0.1 81
2019-08-19 19:00:00 18.3 24 Norte 37 Norte 0 961.4 -0.1 73
2019-08-19 18:00:00 19.1 23 Norte 37 Norte 0 961.1 -0.8 69
2019-08-19 17:00:00 18.8 23 Nordeste 39 Nordeste 0 961.4 0.1 68
2019-08-19 16:00:00 18.7 21 Nordeste 41 Norte 0 961.5 -0.1 70
2019-08-19 15:00:00 17.8 22 Norte 39 Nordeste 0 961.9 0.4 78
2019-08-19 14:00:00 18.3 24 Nordeste 35 Nordeste 0 961.3 0 73
2019-08-19 13:00:00 18.3 21 Norte 32 Norte 0 961.6 0.6 75
2019-08-19 12:00:00 16.7 17 Norte 28 Norte 0 961.5 0.7 83
2019-08-19 11:00:00 16.5 19 Nordeste 28 Nordeste 0 961.3 0.3 80
2019-08-19 10:00:00 15.7 19 Nordeste 28 Nordeste 0 961 0.2 83
2019-08-19 09:00:00 15.2 13 Norte 21 Norte 0 960.8 0 87
2019-08-19 08:00:00 14.7 10 Nordeste 18 Norte 0 961 0.3 89
2019-08-19 07:00:00 14.7 9 Nordeste 17 Norte 0 960.8 0 88
2019-08-19 06:00:00 14.9 11 Nordeste 22 Norte 0 960.8 -0.2 87
2019-08-19 05:00:00 15.1 13 Norte 22 Norte 0 960.7 -0.6 86
2019-08-19 04:00:00 15.1 12 Norte 21 Norte 0 960.8 -0.4 84
2019-08-19 03:00:00 15 8 Nordeste 18 Norte 0 961 0.1 87
2019-08-19 02:00:00 15.1 12 Norte 18 Norte 0 961.3 0.8 87
2019-08-19 01:00:00 15 10 Nordeste 18 Nordeste 0 961.2 1.7 90
2019-08-19 00:00:00 15.5 15 Norte 22 Norte 0 960.9 2.4 85
2019-08-18 23:00:00 15.5 15 Norte 30 Nordeste 0 960.5 2.4 82
2019-08-18 22:00:00 16.4 13 Nordeste 24 Nordeste 0 959.5 2 88
2019-08-18 21:00:00 17.8 14 Nordeste 28 Nordeste 0 958.5 1.5 83
2019-08-18 20:00:00 18.6 18 Norte 30 Norte 0 958.1 1.9 81
2019-08-18 19:00:00 20 22 Nordeste 33 Norte 0 957.5 2 76
2019-08-18 18:00:00 20.9 23 Norte 48 Norte 0 957 1.6 78
2019-08-18 17:00:00 21.7 35 Norte 46 Norte 0 956.2 0.6 80
2019-08-18 16:00:00 23.6 27 Norte 39 Norte 0 955.5 -0.3 72
2019-08-18 15:00:00 25.4 25 Nordeste 35 Norte 0 955.4 -0.1 65
2019-08-18 14:00:00 24.6 25 Nordeste 37 Nordeste 0 955.6 0.5 65
2019-08-18 13:00:00 25.1 28 Nordeste 37 Nordeste 0 955.8 0.9 64
2019-08-18 12:00:00 26.3 9 Noroeste 28 Norte 0 955.5 0.9 57
2019-08-18 11:00:00 24.5 4 Nordeste 11 Sudoeste 0 955.1 1.3 66
2019-08-18 10:00:00 20.8 4 Sudeste 11 Sudeste 0 954.9 1.7 79
2019-08-18 09:00:00 16.5 3 Nordeste 9 Nordeste 0 954.6 1.6 93
2019-08-18 08:00:00 11.8 5 Nordeste 9 Nordeste 0 953.8 0.6 100
2019-08-18 07:00:00 10.5 6 Nordeste 8 Este 0 953.2 -0.4 100
2019-08-18 06:00:00 11.4 3 Sur 5 Sudoeste 0 953 -0.9 100
2019-08-18 05:00:00 12 0 Calma 8 Nordeste 0 953.2 -0.8 99
2019-08-18 04:00:00 12 7 Nordeste 9 Nordeste 0 953.6 -0.6 100
2019-08-18 03:00:00 12.8 4 Oeste 8 Noroeste 0 953.9 -0.8 98
2019-08-18 02:00:00 13.9 2 Sudoeste 9 Nordeste 0 954 -1.2 98
2019-08-18 01:00:00 15.4 8 Nordeste 11 Este 0 954.2 -0.9 93
2019-08-18 00:00:00 16.1 6 Este 8 Sudeste 0 954.7 0.2 91
2019-08-17 23:00:00 18 4 Este 8 Este 0 955.2 1 83
2019-08-17 22:00:00 19.9 2 Este 17 Norte 0 955.1 1 76
2019-08-17 21:00:00 24.2 15 Norte 24 Norte 0 954.5 0 64
2019-08-17 20:00:00 26.9 18 Norte 33 Nordeste 0 954.2 -0.4 55
2019-08-17 19:00:00 29 23 Norte 35 Norte 0 954.1 -1.1 49
2019-08-17 18:00:00 30.2 27 Norte 37 Nordeste 0 954.5 -1.3 46
2019-08-17 17:00:00 31.4 30 Norte 39 Norte 0 954.6 -2 40
2019-08-17 16:00:00 32.6 25 Nordeste 37 Norte 0 955.2 -2.1 35
2019-08-17 15:00:00 32.4 9 Norte 22 Sudoeste 0 955.8 -2.4 31
2019-08-17 14:00:00 30.9 13 Sudoeste 21 Sudoeste 0 956.6 -2 33
2019-08-17 13:00:00 28.5 8 Sudeste 17 Sur 0 957.3 -1.3 41
2019-08-17 12:00:00 25.9 9 Sudeste 15 Sur 0 958.2 -0.1 44
2019-08-17 11:00:00 21.7 4 Sudeste 9 Sudeste 0 958.6 0.5 55
2019-08-17 10:00:00 17.7 3 Norte 8 Sudeste 0 958.6 0.6 71
2019-08-17 09:00:00 13.8 0 Calma 8 Noroeste 0 958.3 0.2 84
2019-08-17 08:00:00 9.7 3 Noroeste 5 Noroeste 0 958.1 -0.3 98
2019-08-17 07:00:00 9.8 4 Noroeste 8 Nordeste 0 958 -0.9 96
2019-08-17 06:00:00 9.8 5 Nordeste 9 Nordeste 0 958.1 -1 96
2019-08-17 05:00:00 10.6 4 Noroeste 5 Noroeste 0 958.4 -1 96
2019-08-17 04:00:00 11.2 2 Nordeste 11 Este 0 958.9 -0.9 95
2019-08-17 03:00:00 12.5 13 Nordeste 15 Nordeste 0 959.1 -0.5 92
2019-08-17 02:00:00 13.1 5 Nordeste 8 Este 0 959.4 -0.2 89
2019-08-17 01:00:00 14.4 2 Norte 13 Nordeste 0 959.8 0.8 84
2019-08-17 00:00:00 16.3 8 Nordeste 17 Nordeste 0 959.6 1.3 77
2019-08-16 23:00:00 17.9 12 Nordeste 22 Nordeste 0 959.6 2.1 74
2019-08-16 22:00:00 19.2 14 Nordeste 21 Nordeste 0 959 1.7 71
2019-08-16 21:00:00 22.5 11 Nordeste 24 Nordeste 0 958.3 1.2 53
2019-08-16 20:00:00 26 18 Norte 26 Norte 0 957.5 0.4 43
2019-08-16 19:00:00 27.9 19 Norte 33 Norte 0 957.3 0.1 46
2019-08-16 18:00:00 29.1 27 Norte 37 Norte 0 957.1 -0.8 47
2019-08-16 17:00:00 30.7 26 Nordeste 35 Nordeste 0 957.1 -1.6 44
2019-08-16 16:00:00 32.2 10 Este 22 Nordeste 0 957.2 -2.5 36
2019-08-16 15:00:00 30.5 7 Oeste 18 Norte 0 957.9 -2.3 38
2019-08-16 14:00:00 27.9 5 Este 13 Este 0 958.7 -1.8 44
2019-08-16 13:00:00 25.2 5 Sur 15 Sudoeste 0 959.7 -- 54
2019-08-16 12:00:00 20.9 4 Este 9 Este 0 960.2 -- 66
2019-08-16 11:00:00 16.3 4 Noroeste 13 Norte 0 960.5 -- 84
2019-08-16 10:00:00 -- -- -- -- -- -- -- -- --
2019-08-16 09:00:00 -- -- -- -- -- -- -- -- --
2019-08-16 08:00:00 -- -- -- -- -- -- -- -- --
2019-08-16 07:00:00 -- -- -- -- -- -- -- -- --
2019-08-16 06:00:00 -- -- -- -- -- -- -- -- --
2019-08-16 05:00:00 10.4 8 Norte 11 Norte 0 961.6 -1.3 100
2019-08-16 04:00:00 10.1 8 Norte 13 Nordeste 0 961.9 -1.6 99
2019-08-16 03:00:00 10.2 10 Este 11 Nordeste 0 962.6 -1.4 99
2019-08-16 02:00:00 11.5 6 Norte 8 Norte 0 962.9 -1.2 97
2019-08-16 01:00:00 13 -- -- 11 Nordeste 0 963.5 -0.2 99
2019-08-16 00:00:00 12.8 6 Nordeste 11 Este 0 964 0.7 96
2019-08-15 23:00:00 13.8 7 Nordeste 18 Nordeste 0 964.1 0.7 92
2019-08-15 22:00:00 15.1 12 Nordeste 18 Nordeste 0 963.7 0.4 88
2019-08-15 21:00:00 17.8 15 Nordeste 26 Nordeste 0 963.3 -0.1 75
2019-08-15 20:00:00 19.9 21 Norte 33 Nordeste 0 963.4 0.1 65
2019-08-15 19:00:00 21.4 21 Norte 33 Norte 0 963.3 -0.1 63
2019-08-15 18:00:00 22.7 24 Norte 37 Norte 0 963.4 -0.1 58
2019-08-15 17:00:00 23 23 Norte 35 Norte 0 963.3 -0.5 59
2019-08-15 16:00:00 23 22 Nordeste 35 Norte 0 963.4 -0.8 59
2019-08-15 15:00:00 22.5 14 Nordeste 30 Nordeste 0 963.5 -1 58
2019-08-15 14:00:00 21.6 11 Norte 26 Nordeste 0 963.8 -0.7 65
2019-08-15 13:00:00 19.9 12 Nordeste 21 Nordeste 0 964.2 0.1 75
2019-08-15 12:00:00 19.2 8 Norte 18 Nordeste 0 964.5 0.7 80
2019-08-15 11:00:00 17.1 13 Nordeste 22 Nordeste 0 964.5 1.1 92
2019-08-15 10:00:00 16.6 12 Nordeste 21 Nordeste 0 964.1 1.3 95
2019-08-15 09:00:00 16.6 13 Nordeste 21 Nordeste 0 963.8 1.3 95
2019-08-15 08:00:00 16.4 15 Nordeste 21 Nordeste 0 963.4 1.1 96
2019-08-15 07:00:00 17.3 12 Nordeste 17 Norte 0.2 962.8 0.4 97
2019-08-15 06:00:00 17.6 5 Oeste 9 Noroeste 0.5 962.5 0 99
2019-08-15 05:00:00 18.1 3 Este 8 Este 0 962.3 -0.6 94
2019-08-15 04:00:00 18.2 3 Oeste 9 Oeste 0 962.4 -0.5 93
2019-08-15 03:00:00 18.6 0 Calma 4 Norte 0 962.5 -0.6 90
2019-08-15 02:00:00 18.5 3 Nordeste 8 Este 0 962.9 -0.2 89
2019-08-15 01:00:00 18.4 0 Calma 8 Este 0 962.9 0.2 89
2019-08-15 00:00:00 18.2 5 Norte 13 Nordeste 0 963.1 1.2 89
2019-08-14 23:00:00 17.7 9 Norte 26 Nordeste 0 963.1 1.9 90
2019-08-14 22:00:00 18.8 19 Nordeste 28 Nordeste 0 962.7 1.6 86
2019-08-14 21:00:00 20.1 19 Nordeste 33 Nordeste 0 961.9 0.9 74
2019-08-14 20:00:00 22.2 23 Nordeste 35 Nordeste 0 961.2 0.5 57
2019-08-14 19:00:00 23.9 23 Nordeste 39 Norte 0 961.1 0.4 53
2019-08-14 18:00:00 25.4 30 Nordeste 39 Nordeste 0 961 0.3 51
2019-08-14 17:00:00 27.1 26 Nordeste 39 Nordeste 0 960.7 -0.6 46
2019-08-14 16:00:00 27.8 21 Nordeste 33 Nordeste 0 960.7 -1 44
2019-08-14 15:00:00 28 17 Nordeste 32 Noroeste 0 960.7 -1.2 43
2019-08-14 14:00:00 26.6 5 Oeste 15 Nordeste 0 961.3 -0.9 42
2019-08-14 13:00:00 25.1 5 Norte 13 Oeste 0 961.7 -0.9 46
2019-08-14 12:00:00 22.7 6 Oeste 11 Sudoeste 0 961.9 -0.7 54
2019-08-14 11:00:00 18.8 4 Sur 11 Sur 0 962.2 -0.1 68
2019-08-14 10:00:00 14.8 2 Sudoeste 8 Noroeste 0 962.6 0.6 83
2019-08-14 09:00:00 11.3 0 Calma 5 Norte 0 962.6 0.9 95
2019-08-14 08:00:00 8.4 3 Este 5 Este 0 962.3 0.3 100
2019-08-14 07:00:00 7.9 5 Sudeste 8 Sudeste 0 962 -0.4 100
2019-08-14 06:00:00 7.7 6 Norte 9 Nordeste 0 961.7 -1.2 99
2019-08-14 05:00:00 8.5 5 Norte 8 Norte 0 962 -1.3 100
2019-08-14 04:00:00 9 4 Nordeste 11 Nordeste 0 962.4 -1 99
2019-08-14 03:00:00 9.2 8 Este 9 Este 0 962.9 -0.6 98
2019-08-14 02:00:00 10 3 Norte 8 Sudoeste 0 963.3 -0.1 96
2019-08-14 01:00:00 10.5 3 Sur 5 Nordeste 0 963.4 0.2 96
2019-08-14 00:00:00 12.1 5 Este 17 Norte 0 963.5 0.7 92
2019-08-13 23:00:00 13.6 9 Norte 15 Nordeste 0 963.4 1.1 87
2019-08-13 22:00:00 15.1 12 Nordeste 21 Norte 0 963.2 0.6 81
2019-08-13 21:00:00 17.6 15 Nordeste 24 Nordeste 0 962.8 0.3 69
2019-08-13 20:00:00 19.3 18 Nordeste 30 Nordeste 0 962.3 -0.3 63
2019-08-13 19:00:00 20.5 23 Nordeste 33 Nordeste 0 962.6 -0.2 58
2019-08-13 18:00:00 21.4 21 Nordeste 37 Nordeste 0 962.5 -0.5 56
2019-08-13 17:00:00 21.6 21 Nordeste 32 Norte 0 962.6 -0.8 56
2019-08-13 16:00:00 21.9 18 Nordeste 32 Este 0 962.8 -1.1 54
2019-08-13 15:00:00 21.4 10 Nordeste 28 Norte 0 963 -1.2 53
2019-08-13 14:00:00 21.2 13 Norte 28 Norte 0 963.4 -1 53
2019-08-13 13:00:00 19.4 13 Nordeste 26 Nordeste 0 963.9 -0.6 58
2019-08-13 12:00:00 18.3 14 Nordeste 24 Norte 0 964.2 -0.3 64
2019-08-13 11:00:00 17.2 6 Este 18 Nordeste 0 964.4 0.2 68
2019-08-13 10:00:00 15.5 4 Oeste 13 Oeste 0 964.5 0.8 81
2019-08-13 09:00:00 12 4 Sudoeste 8 Sudoeste 0 964.5 0.6 98
2019-08-13 08:00:00 10.5 0 Calma 4 Este 0 964.2 0.1 100
2019-08-13 07:00:00 10.5 3 Nordeste 8 Sudoeste 0 963.7 -0.9 99
2019-08-13 06:00:00 10.8 5 Sur 8 Norte 0 963.9 -1.2 99
2019-08-13 05:00:00 10.6 4 Nordeste 8 Sudeste 0 964.1 -1.5 99
2019-08-13 04:00:00 10.6 4 Sudeste 8 Oeste 0 964.6 -1.1 99
2019-08-13 03:00:00 11.4 2 Sur 9 Oeste 0 965.1 -0.9 93
2019-08-13 02:00:00 11.9 0 Calma 9 Oeste 0 965.6 -0.3 93
2019-08-13 01:00:00 12.5 3 Oeste 11 Norte 0 965.7 0.3 90
2019-08-13 00:00:00 12.4 5 Nordeste 11 Nordeste 0 966 1.2 94
2019-08-12 23:00:00 12.9 6 Este 9 Este 0 965.9 1.5 91
2019-08-12 22:00:00 14.2 9 Norte 24 Nordeste 0 965.4 1.2 85
2019-08-12 21:00:00 15 13 Nordeste 22 Norte 0 964.8 0.9 81
2019-08-12 20:00:00 17 14 Norte 35 Norte 0 964.4 0.7 67
2019-08-12 19:00:00 17.2 18 Norte 41 Norte 0 964.2 0.6 65
2019-08-12 18:00:00 18.1 25 Norte 41 Norte 0 963.9 0.3 61
2019-08-12 17:00:00 19.1 27 Norte 39 Norte 0 963.7 0 65
2019-08-12 16:00:00 19.1 27 Norte 39 Nordeste 0 963.6 -0.4 61
2019-08-12 15:00:00 20.5 15 Norte 41 Norte 0 963.6 -0.4 55
2019-08-12 14:00:00 20.8 23 Norte 41 Norte 0 963.7 0 53
2019-08-12 13:00:00 18.5 15 Noroeste 30 Noroeste 0 964 0.6 58
2019-08-12 12:00:00 18 16 Norte 33 Norte 0 964 1.1 61
2019-08-12 11:00:00 16.9 16 Noroeste 33 Noroeste 0 963.7 1.4 65
2019-08-12 10:00:00 15.7 15 Norte 28 Noroeste 0 963.4 1.7 74
2019-08-12 09:00:00 13.5 10 Norte 24 Norte 0 962.9 1.4 86
2019-08-12 08:00:00 11.7 6 Norte 9 Norte 0 962.3 0.9 90
2019-08-12 07:00:00 11.4 8 Norte 13 Norte 0 961.7 0.1 89
2019-08-12 06:00:00 9.9 4 Nordeste 8 Norte 0 961.5 -0.4 95
2019-08-12 05:00:00 10.8 0 Calma 8 Este 0 961.4 -0.8 93
2019-08-12 04:00:00 12.5 4 Sur 11 Oeste 0 961.6 -0.7 87
2019-08-12 03:00:00 13.2 3 Sudoeste 13 Oeste 0 961.9 -0.3 86
2019-08-12 02:00:00 14.3 7 Noroeste 15 Norte 0 962.2 0.3 82
2019-08-12 01:00:00 14.8 6 Oeste 13 Norte 0 962.3 1 86
2019-08-12 00:00:00 15.2 8 Norte 17 Noroeste 0 962.2 1.5 85
2019-08-11 23:00:00 15.4 12 Noroeste 17 Noroeste 0 961.9 1.8 86
2019-08-11 22:00:00 15.7 10 Noroeste 22 Norte 0 961.3 1.3 84
2019-08-11 21:00:00 16.3 13 Norte 32 Norte 0 960.7 1.5 81
2019-08-11 20:00:00 17.1 18 Norte 33 Norte 0 960.1 1 82
2019-08-11 19:00:00 17.7 20 Norte 37 Norte 0 960 1.3 82
2019-08-11 18:00:00 19.2 31 Norte 42 Norte 0 959.2 0.1 76
2019-08-11 17:00:00 20 26 Norte 35 Norte 0 959.1 -0.3 72
2019-08-11 16:00:00 20.9 21 Nordeste 32 Nordeste 0 958.7 -1.4 69
2019-08-11 15:00:00 21.4 14 Norte 26 Nordeste 0 959.1 -0.7 67
2019-08-11 14:00:00 20.2 14 Norte 24 Norte 0 959.4 -0.1 73
2019-08-11 13:00:00 19 11 Norte 21 Norte 0 960.1 0.8 79
2019-08-11 12:00:00 19.1 11 Nordeste 22 Nordeste 0 959.8 0.4 81
2019-08-11 11:00:00 17.2 10 Norte 18 Nordeste 0 959.5 0.6 88
2019-08-11 10:00:00 16.3 9 Norte 18 Norte 0 959.3 -0.4 94
2019-08-11 09:00:00 15.3 9 Norte 15 Norte 0 959.4 0.6 98
2019-08-11 08:00:00 15 4 Este 15 Oeste 2.2 958.9 0 100
2019-08-11 07:00:00 15.1 13 Noroeste 21 Oeste 2.5 959.7 1.2 98
2019-08-11 06:00:00 15.3 10 Oeste 21 Oeste 2.1 958.8 -0.9 98
2019-08-11 05:00:00 15.6 14 Noroeste 18 Noroeste 0 958.9 -1.5 95
2019-08-11 04:00:00 16.1 18 Norte 32 Norte 0.1 958.5 -2.3 93
2019-08-11 03:00:00 16.3 12 Norte 22 Norte 0 959.7 -1.7 89
2019-08-11 02:00:00 16.6 15 Norte 26 Norte 0 960.4 -1.4 86
2019-08-11 01:00:00 16.8 14 Norte 21 Norte 0 960.8 -0.6 85
2019-08-11 00:00:00 17.2 12 Norte 26 Norte 0 961.4 0.2 82
2019-08-10 23:00:00 17.5 13 Norte 26 Norte 0 961.8 1.3 81
2019-08-10 22:00:00 17.8 16 Norte 32 Norte 0 961.4 1 76
2019-08-10 21:00:00 18.4 23 Norte 35 Norte 0 961.2 0.8 80
2019-08-10 20:00:00 19 28 Norte 41 Nordeste 0 960.5 -0.2 76
2019-08-10 19:00:00 21 30 Norte 42 Nordeste 0 960.4 -0.6 67
2019-08-10 18:00:00 22.2 32 Norte 41 Norte 0 960.4 -0.7 64
2019-08-10 17:00:00 22.8 30 Norte 42 Nordeste 0 960.7 -0.9 64
2019-08-10 16:00:00 23.8 28 Nordeste 42 Norte 0 961 -0.7 61
2019-08-10 15:00:00 24.1 22 Norte 37 Norte 0 961.1 -1 59
2019-08-10 14:00:00 23.4 18 Norte 35 Norte 0 961.6 -0.4 62
2019-08-10 13:00:00 22.9 16 Nordeste 35 Nordeste 0 961.7 -0.2 65
2019-08-10 12:00:00 21.8 13 Nordeste 26 Norte 0 962.1 0.7 71
2019-08-10 11:00:00 19.3 12 Norte 18 Norte 0 962 1.1 83
2019-08-10 10:00:00 17.5 3 Sudeste 11 Noroeste 0 961.9 1.4 92
2019-08-10 09:00:00 15.9 3 Noroeste 8 Este 0 961.4 1.3 97
2019-08-10 08:00:00 14.4 6 Nordeste 9 Norte 0 960.9 1.1 98
2019-08-10 07:00:00 13.6 5 Este 8 Este 0 960.5 0.8 99
2019-08-10 06:00:00 14 2 Oeste 8 Oeste 0 960.1 0.7 99
2019-08-10 05:00:00 13.7 0 Calma 8 Noroeste 0 959.8 0.5 99
2019-08-10 04:00:00 14.6 5 Noroeste 8 Oeste 0 959.7 0.8 99
2019-08-10 03:00:00 14.3 5 Este 13 Nordeste 0 959.4 0.7 95
2019-08-10 02:00:00 15.2 10 Este 11 Nordeste 0 959.3 1.2 100
2019-08-10 01:00:00 15.9 3 Sudoeste 8 Sudeste 0 958.9 1.6 96
2019-08-10 00:00:00 17.9 3 Sur 15 Noroeste 0 958.7 2.2 84
2019-08-09 23:00:00 20.4 8 Sudoeste 24 Oeste 0 958.1 2.9 65
2019-08-09 22:00:00 21.3 15 Sudoeste 45 Sudoeste 0 957.3 3.1 59
2019-08-09 21:00:00 23.4 35 Sudoeste 50 Sudoeste 0 956.5 2.4 51
2019-08-09 20:00:00 28.4 24 Oeste 39 Sudoeste 0 955.2 0.9 30
2019-08-09 19:00:00 29.5 29 Sudoeste 55 Oeste 0 954.2 -1 35
2019-08-09 18:00:00 31 34 Sudoeste 48 Oeste 0 954.1 -1.1 39
2019-08-09 17:00:00 30.1 28 Sudoeste 46 Sudoeste 0 954.3 -0.6 49
2019-08-09 16:00:00 27.9 27 Sudoeste 46 Sudoeste 0 955.2 0.3 55
2019-08-09 15:00:00 28.8 38 Sudoeste 58 Sudoeste 0 955.2 0.7 55
2019-08-09 14:00:00 30 35 Sudoeste 55 Sudoeste 0 954.9 0.9 53
2019-08-09 13:00:00 29.1 33 Sudoeste 52 Oeste 0 954.9 1 55
2019-08-09 12:00:00 29.2 33 Sudoeste 50 Oeste 0 954.5 0.8 52
2019-08-09 11:00:00 28.9 30 Sudoeste 46 Sudoeste 0 954 0.5 52
2019-08-09 10:00:00 26.4 28 Sudoeste 48 Sudoeste 0 953.9 0.8 59
2019-08-09 09:00:00 25.5 12 Sudoeste 28 Sur 0 953.7 1 60
2019-08-09 08:00:00 22.7 13 Sudoeste 22 Sudoeste 0 953.5 1.1 67
2019-08-09 07:00:00 22.8 10 Sudoeste 32 Sudoeste 0 953.1 0.7 65
2019-08-09 06:00:00 24 25 Sudoeste 42 Sudoeste 0 952.7 0.1 61
2019-08-09 05:00:00 24.8 27 Sudoeste 48 Sudoeste 0 952.4 -0.3 59
2019-08-09 04:00:00 25.3 20 Sur 37 Sudoeste 0 952.4 -0.1 58
2019-08-09 03:00:00 25.9 19 Sur 32 Sudoeste 0 952.6 0.3 56
2019-08-09 02:00:00 26.9 21 Sur 33 Sur 0 952.7 0.7 51
2019-08-09 01:00:00 26.5 25 Sudoeste 33 Sur 0 952.5 1.3 52
2019-08-09 00:00:00 24.4 5 Sur 18 Sur 0 952.3 1.6 65
2019-08-08 23:00:00 24.2 11 Sudoeste 13 Sudoeste 0 952 0.9 66
2019-08-08 22:00:00 27.1 6 Oeste 17 Oeste 0 951.2 -0.3 59
2019-08-08 21:00:00 30.3 11 Sur 18 Sudoeste 0 950.7 -1.4 48
2019-08-08 20:00:00 30.7 7 Sur 24 Sur 0 951.1 -1.8 47
2019-08-08 19:00:00 32.6 15 Sur 33 Sur 0 951.5 -2 43
2019-08-08 18:00:00 32.1 17 Sudoeste 41 Sudoeste 0 952.1 -1.6 45
2019-08-08 17:00:00 30.1 18 Sur 41 Oeste 0 952.9 -1.1 51
2019-08-08 16:00:00 30.1 32 Sudoeste 50 Sudoeste 0 953.5 -0.6 51
2019-08-08 15:00:00 31.2 29 Sudoeste 54 Sudoeste 0 953.7 -1 47
2019-08-08 14:00:00 29.2 28 Sudoeste 46 Sudoeste 0 954 -0.7 51
2019-08-08 13:00:00 29.4 27 Sudoeste 39 Oeste 0 954.1 -0.5 50
2019-08-08 12:00:00 27.9 25 Sudoeste 42 Sudoeste 0 954.7 0.2 53
2019-08-08 11:00:00 25.9 21 Sudoeste 39 Sudoeste 0 954.7 0.3 58
2019-08-08 10:00:00 23.7 18 Sudoeste 28 Sudoeste 0 954.6 0.2 65
2019-08-08 09:00:00 22.8 15 Sudoeste 26 Sudoeste 0 954.5 0.1 67
2019-08-08 08:00:00 20.8 8 Sudoeste 28 Sudoeste 0 954.4 -0.2 76
2019-08-08 07:00:00 20.3 14 Sudoeste 24 Sudoeste 0 954.4 0 77
2019-08-08 06:00:00 18.9 9 Oeste 22 Sudoeste 0 954.4 -0.1 83
2019-08-08 05:00:00 18.6 11 Sudoeste 18 Sudoeste 0 954.6 -0.3 85
2019-08-08 04:00:00 19.6 17 Sudoeste 24 Sudoeste 0 954.4 -0.4 81
2019-08-08 03:00:00 19.6 15 Sudoeste 22 Sudoeste 0 954.5 -0.5 81
2019-08-08 02:00:00 20.2 15 Sudoeste 21 Sudoeste 0 954.9 0.4 78
2019-08-08 01:00:00 21 12 Sur 18 Sudoeste 0 954.8 1 73
2019-08-08 00:00:00 21.9 14 Sudoeste 21 Sudoeste 0 955 1.2 68
2019-08-07 23:00:00 21.9 0 Calma 8 Este 0 954.5 1.3 75
2019-08-07 22:00:00 23.2 3 Este 21 Noroeste 0 953.8 1 63
2019-08-07 21:00:00 24.9 11 Sudoeste 39 Sudoeste 0 953.8 0.7 52
2019-08-07 20:00:00 27.5 22 Sudoeste 41 Oeste 0 953.2 -0.2 42
2019-08-07 19:00:00 27.5 6 Este 15 Este 0 952.8 -1.1 54
2019-08-07 18:00:00 26.9 12 Norte 24 Norte 0 953.1 -1.3 55
2019-08-07 17:00:00 27.5 16 Nordeste 28 Norte 0 953.4 -1.6 55
2019-08-07 16:00:00 28.6 11 Norte 26 Norte 0 953.9 -1.3 51
2019-08-07 15:00:00 27.1 10 Norte 26 Norte 0 954.4 -1.2 54
2019-08-07 14:00:00 25.8 10 Norte 22 Nordeste 0 955 -0.7 60
2019-08-07 13:00:00 24.2 11 Norte 22 Norte 0 955.2 -0.2 66
2019-08-07 12:00:00 23.4 7 Nordeste 13 Este 0 955.6 0.6 70
2019-08-07 11:00:00 21.1 4 Norte 11 Norte 0 955.7 1.2 81
2019-08-07 10:00:00 19.5 4 Norte 9 Norte 0 955.4 1.3 88
2019-08-07 09:00:00 17.9 7 Este 11 Nordeste 0 955 1.2 96
2019-08-07 08:00:00 16.9 8 Norte 11 Norte 0 954.5 0.7 99
2019-08-07 07:00:00 16.6 0 Calma 8 Nordeste 0 954.1 0.4 100
2019-08-07 06:00:00 16.8 0 Calma 8 Sur 0 953.8 -0.1 99
2019-08-07 05:00:00 17.1 2 Norte 11 Noroeste 0 953.8 -1.5 97
2019-08-07 04:00:00 17 5 Oeste 13 Noroeste 0 953.7 -2.5 99
2019-08-07 03:00:00 17.2 3 Noroeste 9 Este 0 953.9 -2.5 98
2019-08-07 02:00:00 17.3 0 Calma 9 Este 0.1 955.3 -0.8 97
2019-08-07 01:00:00 17.6 4 Sur 13 Norte 0.2 956.2 0.3 92
2019-08-07 00:00:00 18.2 10 Nordeste 17 Nordeste 0 956.4 1.1 89
2019-08-06 23:00:00 18.1 13 Nordeste 21 Nordeste 0 956.1 2 87
2019-08-06 22:00:00 19.2 11 Nordeste 21 Noroeste 0 955.9 2.1 77
2019-08-06 21:00:00 20.4 17 Norte 33 Norte 0 955.3 1.7 70
2019-08-06 20:00:00 22.5 23 Norte 33 Norte 0 954.1 0.4 69
2019-08-06 19:00:00 25 21 Norte 30 Nordeste 0 953.8 0.2 68
2019-08-06 18:00:00 25.6 17 Norte 28 Norte 0 953.6 -0.6 66
2019-08-06 17:00:00 26.7 19 Norte 35 Nordeste 0 953.7 -1.1 60
2019-08-06 16:00:00 29.4 20 Norte 30 Norte 0 953.6 -1.7 50
2019-08-06 15:00:00 28.1 8 Nordeste 21 Nordeste 0 954.2 -1.7 51
2019-08-06 14:00:00 27 6 Nordeste 13 Nordeste 0 954.8 -1.1 53
2019-08-06 13:00:00 25.2 3 Noroeste 13 Sur 0 955.3 -0.9 58
2019-08-06 12:00:00 22.4 4 Sudeste 13 Norte 0 955.9 -0.1 70
2019-08-06 11:00:00 20.3 2 Este 8 Sudeste 0 955.9 -0.3 79
2019-08-06 10:00:00 18.3 2 Este 9 Noroeste 0 956.2 -0.1 88
2019-08-06 09:00:00 16.3 3 Noroeste 9 Noroeste 0 956 -0.4 96
2019-08-06 08:00:00 15 0 Calma 8 Oeste 0 956.2 -0.4 100
2019-08-06 07:00:00 14 0 Calma 5 Oeste 0 956.3 -0.4 100
2019-08-06 06:00:00 13.1 3 Noroeste 11 Nordeste 0 956.4 -0.7 100
2019-08-06 05:00:00 13.2 6 Nordeste 8 Nordeste 0 956.6 -1.2 100
2019-08-06 04:00:00 13.7 6 Norte 8 Nordeste 0 956.7 -1.2 100
2019-08-06 03:00:00 14.3 3 Sur 9 Noroeste 0 957.1 -0.8 97
2019-08-06 02:00:00 14.7 3 Nordeste 8 Nordeste 0 957.8 -0.2 98
2019-08-06 01:00:00 16 0 Calma 8 Noroeste 0 957.9 0.6 94
2019-08-06 00:00:00 17.4 6 Noroeste 15 Norte 0 957.9 1.1 91
2019-08-05 23:00:00 18.6 10 Norte 18 Nordeste 0 958 1.5 90
2019-08-05 22:00:00 19.4 13 Nordeste 26 Nordeste 0 957.3 1 87
2019-08-05 21:00:00 21.3 18 Nordeste 32 Nordeste 0 956.8 0.6 78
2019-08-05 20:00:00 22.9 24 Norte 39 Nordeste 0 956.5 0.2 75
2019-08-05 19:00:00 24.3 27 Nordeste 37 Nordeste 0 956.3 -0.4 72
2019-08-05 18:00:00 25.4 26 Nordeste 39 Nordeste 0 956.2 -0.6 68
2019-08-05 17:00:00 26.2 24 Norte 33 Norte 0 956.3 -1 67
2019-08-05 16:00:00 26.5 20 Nordeste 32 Este 0 956.7 -1.3 66
2019-08-05 15:00:00 25.6 19 Nordeste 26 Norte 0 956.8 -1.6 68
2019-08-05 14:00:00 24.1 12 Norte 22 Nordeste 0 957.3 -1.2 70
2019-08-05 13:00:00 22.4 14 Nordeste 24 Nordeste 0 958 -0.8 76
2019-08-05 12:00:00 20.2 8 Este 18 Este 0 958.4 -0.4 84
2019-08-05 11:00:00 19.4 7 Este 11 Nordeste 0 958.5 -0.3 86
2019-08-05 10:00:00 17.6 0 Calma 4 Sudeste 0 958.8 0.1 92
2019-08-05 09:00:00 15.6 0 Calma 5 Nordeste 0 958.8 0.4 98
2019-08-05 08:00:00 13.3 3 Nordeste 5 Este 0 958.8 0.1 100
2019-08-05 07:00:00 13.3 3 Oeste 8 Oeste 0 958.7 0 100
2019-08-05 06:00:00 13.4 0 Calma 8 Este 0 958.4 -0.9 99
2019-08-05 05:00:00 14.3 0 Calma 11 Oeste 0 958.7 -0.9 98
2019-08-05 04:00:00 15.7 5 Oeste 17 Noroeste 0 958.7 -1 96
2019-08-05 03:00:00 16.4 4 Norte 11 Nordeste 0 959.3 -0.4 96
2019-08-05 02:00:00 16.1 8 Nordeste 18 Norte 0 959.6 -0.3 95
2019-08-05 01:00:00 16.6 7 Norte 11 Norte 0 959.7 0.2 93
2019-08-05 00:00:00 18.5 4 Nordeste 15 Nordeste 0 959.7 1 87
2019-08-04 23:00:00 18.6 11 Nordeste 26 Norte 0 959.9 1.9 88
2019-08-04 22:00:00 18.9 19 Norte 30 Norte 0 959.5 2.3 88
2019-08-04 21:00:00 19.4 15 Norte 37 Nordeste 0 958.7 1.3 88
2019-08-04 20:00:00 20.4 25 Norte 39 Norte 0 958 1 83
2019-08-04 19:00:00 21.8 24 Norte 37 Nordeste 0 957.2 0.3 79
2019-08-04 18:00:00 22.4 25 Nordeste 41 Norte 0 957.4 0.7 78
2019-08-04 17:00:00 24.5 28 Nordeste 39 Nordeste 0 957 -0.1 72
2019-08-04 16:00:00 25.4 23 Nordeste 37 Norte 0 956.9 -0.9 70
2019-08-04 15:00:00 26 15 Nordeste 26 Nordeste 0 956.7 -1.4 67
2019-08-04 14:00:00 24.9 6 Norte 18 Norte 0 957.1 -1.2 67
2019-08-04 13:00:00 23.6 8 Norte 15 Noroeste 0 957.8 -0.5 70
2019-08-04 12:00:00 21.2 9 Norte 21 Nordeste 0 958.1 -0.1 78
2019-08-04 11:00:00 20.3 14 Nordeste 24 Norte 0 958.3 0.5 81
2019-08-04 10:00:00 19.4 16 Norte 22 Norte 0 958.3 0.7 83
2019-08-04 09:00:00 18.7 14 Norte 22 Norte 0 958.2 0.8 87
2019-08-04 08:00:00 18.4 14 Norte 21 Norte 0 957.8 0.2 88
2019-08-04 07:00:00 18.1 12 Norte 17 Norte 0 957.6 -0.1 90
2019-08-04 06:00:00 18.1 13 Norte 17 Norte 0 957.4 -0.4 91
2019-08-04 05:00:00 17.9 9 Nordeste 15 Nordeste 0 957.6 0 95
2019-08-04 04:00:00 18.1 10 Norte 21 Norte 0 957.7 0.1 95
2019-08-04 03:00:00 17.7 9 Norte 15 Nordeste 0 957.8 0 97
2019-08-04 02:00:00 17.3 4 Este 11 Norte 0 957.6 0 97
2019-08-04 01:00:00 18.2 8 Nordeste 13 Norte 0 957.6 0.8 93
2019-08-04 00:00:00 19.8 7 Norte 15 Norte 0 957.8 1.8 89
2019-08-03 23:00:00 19.9 8 Norte 15 Norte 0 957.6 2.2 88
2019-08-03 22:00:00 20.5 5 Noroeste 17 Noroeste 0 956.8 1.8 86
2019-08-03 21:00:00 23.9 11 Noroeste 32 Norte 0 956 1.1 74
2019-08-03 20:00:00 26.1 22 Nordeste 33 Norte 0 955.4 0.6 70
2019-08-03 19:00:00 28.4 22 Norte 37 Nordeste 0 955 -0.3 62
2019-08-03 18:00:00 29.7 27 Nordeste 35 Norte 0 954.9 -0.9 57
2019-08-03 17:00:00 31.9 13 Nordeste 24 Norte 0 954.8 -1.6 42
2019-08-03 16:00:00 31.7 8 Este 21 Este 0 955.3 -1.8 37
2019-08-03 15:00:00 30.6 5 Oeste 17 Sudeste 0 955.8 -1.8 43
2019-08-03 14:00:00 28.2 5 Nordeste 13 Este 0 956.4 -1.5 50
2019-08-03 13:00:00 24.7 5 Oeste 11 Sudoeste 0 957.1 -1.1 57
2019-08-03 12:00:00 20.3 5 Noroeste 13 Norte 0 957.6 -0.6 81
2019-08-03 11:00:00 16.8 4 Nordeste 11 Nordeste 0 957.9 -0.2 97
2019-08-03 10:00:00 15.4 0 Calma 8 Este 0 958.2 0.2 100
2019-08-03 09:00:00 14.8 4 Nordeste 9 Nordeste 0 958.2 0.2 100
2019-08-03 08:00:00 14 0 Calma 9 Norte 0 958.1 -0.2 100
2019-08-03 07:00:00 13.8 4 Norte 5 Norte 0 958 -0.5 100
2019-08-03 06:00:00 13.4 3 Norte 9 Nordeste 0 958 -1 100
2019-08-03 05:00:00 11.9 7 Nordeste 9 Nordeste 0 958.3 -0.9 100
2019-08-03 04:00:00 12.8 4 Norte 8 Nordeste 0 958.5 -1 100
2019-08-03 03:00:00 13.5 5 Este 11 Nordeste 0 959 -0.4 100
2019-08-03 02:00:00 13.9 5 Este 8 Este 0 959.2 -0.1 99
2019-08-03 01:00:00 15.4 0 Calma 15 Norte 0 959.5 0.5 95
2019-08-03 00:00:00 16.4 11 Norte 17 Norte 0 959.4 0.7 94
2019-08-02 23:00:00 16.8 4 Este 17 Norte 0 959.3 1.1 92
2019-08-02 22:00:00 19 14 Norte 18 Norte 0 959 0.9 84
2019-08-02 21:00:00 21.4 16 Nordeste 26 Nordeste 0 958.7 0.4 77
2019-08-02 20:00:00 23.7 22 Nordeste 32 Nordeste 0 958.2 -0.4 70
2019-08-02 19:00:00 25.4 19 Nordeste 32 Nordeste 0 958.1 -1 64
2019-08-02 18:00:00 26 18 Nordeste 32 Nordeste 0 958.3 -1.2 63
2019-08-02 17:00:00 25.8 17 Nordeste 33 Nordeste 0 958.6 -1.1 63
2019-08-02 16:00:00 25.2 17 Nordeste 37 Nordeste 0 959.1 -0.9 64
2019-08-02 15:00:00 24.4 18 Nordeste 32 Nordeste 0 959.5 -0.6 65
2019-08-02 14:00:00 23.4 16 Nordeste 37 Norte 0 959.7 -0.3 66
2019-08-02 13:00:00 23 16 Nordeste 30 Nordeste 0 960 0 67
2019-08-02 12:00:00 22 14 Nordeste 24 Nordeste 0 960.1 0.5 68
2019-08-02 11:00:00 20.3 13 Nordeste 24 Norte 0 960 0.4 75
2019-08-02 10:00:00 19.2 15 Nordeste 24 Norte 0 960 0.8 80
2019-08-02 09:00:00 18.2 13 Norte 21 Norte 0 959.6 0.5 84
2019-08-02 08:00:00 17.1 11 Norte 22 Norte 0 959.6 0.1 91
2019-08-02 07:00:00 16.5 11 Norte 22 Norte 0 959.2 -0.5 96
2019-08-02 06:00:00 16.5 10 Norte 15 Nordeste 0 959.1 -0.7 97
2019-08-02 05:00:00 16.7 0 Calma 8 Norte 0 959.5 -0.6 95
2019-08-02 04:00:00 16.7 0 Calma 8 Noroeste 0 959.7 -0.6 95
2019-08-02 03:00:00 16.8 8 Noroeste 13 Norte 0 959.8 -0.4 93
2019-08-02 02:00:00 16.9 6 Norte 11 Norte 0 960.1 0.3 94
2019-08-02 01:00:00 16.9 5 Norte 13 Nordeste 0 960.3 1.1 95
2019-08-02 00:00:00 16.9 8 Nordeste 17 Norte 0 960.2 1.5 94
2019-08-01 23:00:00 17 11 Nordeste 17 Nordeste 0 959.8 1.4 93
2019-08-01 22:00:00 17.4 9 Norte 21 Norte 0 959.2 1.2 91
2019-08-01 21:00:00 17.8 12 Norte 21 Norte 0 958.7 1.2 90
2019-08-01 20:00:00 17.8 12 Norte 24 Norte 0 958.4 1.6 91
2019-08-01 19:00:00 18.2 14 Noroeste 30 Norte 0 958 1.6 90
2019-08-01 18:00:00 18.8 13 Noroeste 26 Norte 0 957.5 1.3 89
2019-08-01 17:00:00 20.4 18 Noroeste 30 Noroeste 0 956.8 0.4 84
2019-08-01 16:00:00 22.2 14 Norte 26 Noroeste 0 956.4 -0.3 78
2019-08-01 15:00:00 23.6 14 Norte 24 Norte 0 956.2 -0.7 73
2019-08-01 14:00:00 22.6 9 Oeste 18 Oeste 0 956.4 -0.5 76
2019-08-01 13:00:00 21.1 4 Noroeste 18 Norte 0 956.7 -0.1 79
2019-08-01 12:00:00 19.8 5 Norte 13 Norte 0 956.9 0.3 81
2019-08-01 11:00:00 18.8 3 Sur 9 Nordeste 0 956.9 0.7 87
2019-08-01 10:00:00 17.2 6 Nordeste 13 Norte 0 956.8 1 96
2019-08-01 09:00:00 15.7 7 Sudoeste 13 Sudoeste 0.4 956.6 0 100
2019-08-01 08:00:00 15.6 8 Norte 30 Nordeste 0.6 956.2 -1.3 99
2019-08-01 07:00:00 15.7 10 Nordeste 30 Sudeste 1.5 955.8 -0.9 98
2019-08-01 06:00:00 15.5 10 Este 22 Este 7.8 956.6 -1.2 100
2019-08-01 05:00:00 16 17 Noroeste 41 Noroeste 0.9 957.5 -0.9 95
2019-08-01 04:00:00 16.8 13 Nordeste 21 Nordeste 0 956.7 -2 87
2019-08-01 03:00:00 16.8 13 Norte 22 Norte 0 957.8 -1.2 86
2019-08-01 02:00:00 16.6 16 Norte 26 Norte 0 958.4 -0.8 87
2019-08-01 01:00:00 16.3 16 Norte 26 Norte 0 958.7 0 89
2019-08-01 00:00:00 16.4 15 Norte 26 Norte 0 959 0.6 88
2019-07-31 23:00:00 16.7 16 Norte 24 Norte 0 959.2 1 87
2019-07-31 22:00:00 17.3 11 Norte 26 Norte 0 958.7 0.6 83
2019-07-31 21:00:00 18.6 16 Norte 30 Norte 0 958.4 0.1 78
2019-07-31 20:00:00 19.5 24 Norte 33 Norte 0 958.2 -0.2 75
2019-07-31 19:00:00 21.1 23 Norte 33 Nordeste 0 958.1 -0.9 69
2019-07-31 18:00:00 22.4 22 Nordeste 32 Norte 0 958.3 -1.1 64
2019-07-31 17:00:00 23.4 18 Nordeste 28 Norte 0 958.4 -1.6 57
2019-07-31 16:00:00 22.9 13 Norte 28 Nordeste 0 959 -1.5 55
2019-07-31 15:00:00 22.3 15 Nordeste 30 Norte 0 959.4 -1.6 55
2019-07-31 14:00:00 21.6 17 Nordeste 32 Norte 0 960 -1.5 55
2019-07-31 13:00:00 21 15 Norte 30 Nordeste 0 960.5 -1.2 57
2019-07-31 12:00:00 19.6 11 Nordeste 22 Nordeste 0 961 -1 63
2019-07-31 11:00:00 17.3 7 Este 17 Este 0 961.5 -0.6 76
2019-07-31 10:00:00 14.1 4 Norte 11 Norte 0 961.7 -0.5 88
2019-07-31 09:00:00 10.6 2 Este 8 Este 0 962 -0.3 100
2019-07-31 08:00:00 8.4 2 Nordeste 9 Oeste 0 962.1 -0.2 100
2019-07-31 07:00:00 8.2 0 Calma 9 Nordeste 0 962.2 -0.5 100
2019-07-31 06:00:00 7.3 3 Nordeste 5 Este 0 962.3 -0.6 100
2019-07-31 05:00:00 7.5 4 Este 5 Este 0 962.3 -0.8 100
2019-07-31 04:00:00 8.7 0 Calma 5 Sudeste 0 962.7 -0.4 100
2019-07-31 03:00:00 8.3 0 Calma -- -- 0 962.9 -0.4 98
2019-07-31 02:00:00 9.6 3 Noroeste 5 Noroeste 0 963.1 -0.1 96
2019-07-31 01:00:00 10 0 Calma 11 Este 0 963.1 0.5 95
2019-07-31 00:00:00 11.3 0 Calma 9 Norte 0 963.3 1.1 91
2019-07-30 23:00:00 13.2 5 Norte 15 Norte 0 963.2 1.5 83
2019-07-30 22:00:00 14.4 13 Norte 33 Norte 0 962.6 1.1 77
2019-07-30 21:00:00 16.4 23 Norte 41 Norte 0 962.2 0.7 71
2019-07-30 20:00:00 17.5 27 Norte 37 Norte 0 961.7 0.2 69
2019-07-30 19:00:00 18.7 27 Norte 42 Norte 0 961.5 0 61
2019-07-30 18:00:00 19.7 26 Norte 41 Nordeste 0 961.5 -0.1 56
2019-07-30 17:00:00 20.2 24 Nordeste 39 Nordeste 0 961.5 -0.2 58
2019-07-30 16:00:00 21.5 19 Nordeste 35 Nordeste 0 961.5 -0.4 53
2019-07-30 15:00:00 20.6 18 Norte 32 Norte 0 961.6 -0.3 52
2019-07-30 14:00:00 20.2 19 Norte 33 Norte 0 961.7 0 56
2019-07-30 13:00:00 20.3 15 Norte 32 Norte 0 961.9 0.2 51
2019-07-30 12:00:00 19.8 18 Norte 33 Norte 0 961.9 0.6 54
2019-07-30 11:00:00 17.9 18 Noroeste 28 Noroeste 0 961.7 1.1 61
2019-07-30 10:00:00 17.8 12 Noroeste 28 Noroeste 0 961.7 1.4 60
2019-07-30 09:00:00 16 13 Norte 22 Norte 0 961.3 1.4 68
2019-07-30 08:00:00 15.1 10 Noroeste 18 Noroeste 0 960.6 1 72
2019-07-30 07:00:00 14.9 11 Norte 22 Norte 0 960.3 0.9 75
2019-07-30 06:00:00 15 8 Norte 18 Norte 0 959.9 0.6 79
2019-07-30 05:00:00 14.8 4 Sudeste 11 Este 0 959.6 0.4 90
2019-07-30 04:00:00 14.9 7 Este 13 Este 0 959.4 0.2 89
2019-07-30 03:00:00 15.1 0 Calma 13 Norte 0 959.3 0.5 89
2019-07-30 02:00:00 15.6 6 Nordeste 18 Norte 0 959.2 0.8 83
2019-07-30 01:00:00 15.7 9 Norte 22 Noroeste 0 959.2 1.7 85
2019-07-30 00:00:00 16 10 Norte 18 Nordeste 0 958.8 2.4 89
2019-07-29 23:00:00 16 11 Nordeste 24 Norte 0 958.4 2.4 88
2019-07-29 22:00:00 16.3 17 Nordeste 33 Norte 0 957.5 2 87
2019-07-29 21:00:00 17.4 19 Norte 37 Norte 0 956.4 1.6 76
2019-07-29 20:00:00 17.5 28 Norte 45 Norte 0 956 1.6 78
2019-07-29 19:00:00 18.6 31 Norte 46 Norte 0 955.5 2.2 77
2019-07-29 18:00:00 21.1 30 Norte 46 Norte 0 954.8 2.3 74
2019-07-29 17:00:00 22.9 34 Nordeste 46 Nordeste 0 954.4 1.7 68
2019-07-29 16:00:00 25.1 29 Norte 46 Nordeste 0 953.3 0.3 62
2019-07-29 15:00:00 26.4 33 Nordeste 41 Nordeste 0 952.5 -0.7 55
2019-07-29 14:00:00 28.7 8 Sur 24 Sudoeste 0 952.7 -0.4 31
2019-07-29 13:00:00 26.8 14 Sur 22 Sur 0 953 -0.2 40
2019-07-29 12:00:00 25 11 Sudoeste 21 Sudoeste 0 953.2 0.2 45
2019-07-29 11:00:00 22 5 Sudoeste 13 Sur 0 953.1 0.3 58
2019-07-29 10:00:00 18.6 3 Noroeste 9 Oeste 0 953.2 0.5 76
2019-07-29 09:00:00 14.8 4 Nordeste 9 Nordeste 0 953 0.4 93
2019-07-29 08:00:00 10.9 3 Nordeste 8 Nordeste 0 952.8 0.3 100
2019-07-29 07:00:00 8.4 0 Calma 2 Nordeste 0 952.7 0.2 100
2019-07-29 06:00:00 9.1 2 Oeste 4 Oeste 0 952.6 -0.1 100
2019-07-29 05:00:00 10 0 Calma 9 Norte 0 952.5 -0.2 100
2019-07-29 04:00:00 10.3 0 Calma 8 Nordeste 0 952.5 -0.4 100
2019-07-29 03:00:00 11.1 4 Este 5 Este 0 952.7 -0.4 100
2019-07-29 02:00:00 12 2 Noroeste 5 Sudeste 0 952.7 -0.8 99
2019-07-29 01:00:00 13.2 0 Calma 8 Noroeste 0 952.9 -0.1 96
2019-07-29 00:00:00 14 5 Nordeste 9 Nordeste 0 953.1 0.2 95
2019-07-28 23:00:00 15.3 5 Nordeste 11 Nordeste 0 953.5 0.7 91
2019-07-28 22:00:00 17.8 6 Norte 17 Nordeste 0 953 0.2 81
2019-07-28 21:00:00 20.9 12 Nordeste 22 Nordeste 0 952.9 -0.4 66
2019-07-28 20:00:00 22.6 14 Nordeste 26 Nordeste 0 952.8 -0.9 57
2019-07-28 19:00:00 23.4 12 Nordeste 24 Norte 0 952.8 -1.4 54
2019-07-28 18:00:00 23.6 13 Norte 26 Nordeste 0 953.3 -1.3 54
2019-07-28 17:00:00 22.8 9 Nordeste 24 Nordeste 0 953.7 -1.3 56
2019-07-28 16:00:00 22.8 14 Nordeste 30 Norte 0 954.2 -1.4 57
2019-07-28 15:00:00 22.6 14 Nordeste 24 Nordeste 0 954.6 -1.2 57
2019-07-28 14:00:00 21.4 5 Norte 18 Nordeste 0 955 -0.9 57
2019-07-28 13:00:00 19.7 9 Norte 18 Norte 0 955.6 -0.3 65
2019-07-28 12:00:00 18.9 4 Norte 15 Oeste 0 955.8 -0.2 65
2019-07-28 11:00:00 18.5 5 Sudoeste 15 Sur 0 955.9 0.1 69
2019-07-28 10:00:00 16.8 4 Sudoeste 15 Sudoeste 0 955.9 0.4 80
2019-07-28 09:00:00 15 7 Sudoeste 13 Sudoeste 0 956 0.6 89
2019-07-28 08:00:00 13.5 7 Oeste 13 Oeste 0 955.8 0.2 97
2019-07-28 07:00:00 13 5 Sudoeste 13 Sudoeste 0 955.5 -0.1 97
2019-07-28 06:00:00 12 6 Sur 17 Oeste 0 955.4 -0.6 96
2019-07-28 05:00:00 13.5 7 Oeste 18 Noroeste 0 955.6 -0.1 94
2019-07-28 04:00:00 13.4 6 Sudoeste 13 Oeste 0 955.6 -0.2 95
2019-07-28 03:00:00 13.6 8 Oeste 15 Oeste 0 956 0.2 97
2019-07-28 02:00:00 14.2 10 Oeste 17 Oeste 0 955.7 -0.1 90
2019-07-28 01:00:00 14.2 10 Oeste 15 Oeste 0 955.8 0.7 91
2019-07-28 00:00:00 13.9 6 Sudoeste 11 Sudoeste 0 955.8 1.3 94
2019-07-27 23:00:00 14.4 8 Noroeste 17 Noroeste 0 955.8 2.1 93
2019-07-26 12:00:00 18.4 10 Norte 21 Norte 0 956.3 0.9 93
2019-07-26 11:00:00 18.7 10 Nordeste 26 Norte 0 956.3 0.2 91
2019-07-26 10:00:00 18.6 18 Norte 28 Norte 0 956 0 95
2019-07-26 09:00:00 18.8 8 Norte 37 Nordeste 1 955.4 -0.4 98
2019-07-26 08:00:00 18.5 8 Sudoeste 22 Noroeste 0.8 956.1 -0.7 99
2019-07-26 07:00:00 18 6 Noroeste 13 Noroeste 0 956 -0.8 100
2019-07-26 06:00:00 18.1 13 Norte 21 Norte 0.1 955.8 -1.2 97
2019-07-26 05:00:00 18.2 12 Norte 18 Norte 0.4 956.8 -0.3 99
2019-07-26 04:00:00 18.3 6 Nordeste 21 Nordeste 0.9 956.8 0 98
2019-07-26 03:00:00 18.9 7 Norte 13 Norte 0 957 0 95
2019-07-26 02:00:00 18.9 12 Norte 22 Norte 0 957.1 0.4 93
2019-07-26 01:00:00 19.4 15 Norte 26 Norte 0 956.8 0.7 93
2019-07-26 00:00:00 19.7 24 Norte 35 Norte 0 957 2.1 97